Cheyenne, WY (82006)

12:35 AM MDT on June 02, 2015 (GMT -0600)
North Star | | Change Station
CLOSE
Current Station
Personal Weather Station
Location: Cheyenne, WY
Elevation: 6158 ft
Nearby Weather Stations
Active Advisory: Flood Warning

Elev 6158 ft 41.25 °N, 104.80 °W | Updated 13 minutes ago

Partly Cloudy
Partly Cloudy
53.8 °F
Feels Like 53.8 °F
N
5.3
Wind Variable Wind from East

Today
High -- | Low -- °F
--% Chance of Precip.
Yesterday
High -- | Low -- °F
Precip. -- in
5:27 AM 8:27 PM
Full, 100% visible
Pressure 29.84 in
Visibility 10.0 miles
Clouds Few 12000 ft
Dew Point 48 °F
Humidity 80%
Rainfall 0.00 in
Snow Depth Not available.
UV 0 out of 12
Pollen 8.10 out of 12
Air Quality Not available.
Flu Activity Sporadic
METAR KCYS 020553Z AUTO 04005KT 10SM FEW120 14/09 A3008 RMK AO2 PK WND 34028/0502 SLP103 T01440089 10222 20144 53007 TSNO

More Conditions Fewer Conditions

Pressure 29.84 in
Visibility 10.0 miles
Clouds Few 12000 ft
Dew Point 48 °F
Humidity 80%
Rainfall 0.00 in
Snow Depth Not available.
UV 0 out of 12
Pollen 8.10 out of 12
Air Quality Not available.
Flu Activity Sporadic
METAR KCYS 020553Z AUTO 04005KT 10SM FEW120 14/09 A3008 RMK AO2 PK WND 34028/0502 SLP103 T01440089 10222 20144 53007 TSNO

More Conditions Fewer Conditions

10-Day Weather Forecast

Almanac

Astronomy

Jun. 02, 2015 Rise Set
Actual Time
Civil Twilight
Nautical Twilight
Astronomical Twilight
Moon
Length of Visible Light
Length of Day
Tomorrow will be .
, % of the Moon is Illuminated

Today's Extremes

State Highs State Lows

Community

WunderPhotos

Upload Photos

1,825,919 photos uploaded!

WunderBlogs® & News

Nearby

Air Quality

  Air Quality AQ Index Pollutant
Not available.

Snow Depth

Station Depth Elevation

Earthquake Activity

City Distance Mag. Time & Date
Minimum magnitude displayed is 2.5.

Coastal Water Temperatures

Place Temperature

Stations

Nearby Weather Stations

Station Location Temp. Windchill Dew Point Humidity Wind Precip. Elev Updated Type
                   
Flood Warning
Statement as of 9:07 PM MDT on June 01, 2015

* Flood Warning continues for
the Laramie river at Laramie
* the stage will rise above the flood stage of 8.0 feet at 06 PM
Wednesday and remain in minor flood conditions through the remainder
of the week. The river is forecast to rise to 8.7 feet by early
Friday morning.


Flood impacts and crest history information is displayed at:
http:///water.Weather.Gov/ahps2/index.Php?Wfo=cys&gage=llrw4

* impact... at 8.5 feet... water reaches the top of the Greenway path at
the intersection of park and Spruce streets. Water is over the
driveways of homes next to the Greenway along the right river bank.
* Flood history... this crest compares to a previous crest of 6.8 feet
on Jun 15 1957.


Lat... Lon 4142 10585 4142 10551 4128 10549 4119 10570
      4124 10577